sensor_id;sensor_type;location;lat;lon;timestamp;P1;durP1;ratioP1;P2;durP2;ratioP2
51913;SDS011;37940;53.002;6.930;2022-10-24T00:01:09;4.07;;;2.08;;
51913;SDS011;37940;53.002;6.930;2022-10-24T00:03:37;5.97;;;2.10;;
51913;SDS011;37940;53.002;6.930;2022-10-24T00:06:04;7.57;;;2.17;;
51913;SDS011;37940;53.002;6.930;2022-10-24T00:08:32;5.65;;;2.15;;
51913;SDS011;37940;53.002;6.930;2022-10-24T00:10:58;7.43;;;2.13;;
51913;SDS011;37940;53.002;6.930;2022-10-24T00:13:24;4.82;;;2.10;;
51913;SDS011;37940;53.002;6.930;2022-10-24T00:15:50;5.95;;;2.20;;
51913;SDS011;37940;53.002;6.930;2022-10-24T00:18:16;6.75;;;2.30;;
51913;SDS011;37940;53.002;6.930;2022-10-24T00:20:42;6.57;;;2.17;;
51913;SDS011;37940;53.002;6.930;2022-10-24T00:23:08;7.75;;;2.55;;
51913;SDS011;37940;53.002;6.930;2022-10-24T00:25:36;5.60;;;2.30;;
51913;SDS011;37940;53.002;6.930;2022-10-24T00:28:02;5.72;;;2.28;;
51913;SDS011;37940;53.002;6.930;2022-10-24T00:30:27;6.05;;;2.40;;
51913;SDS011;37940;53.002;6.930;2022-10-24T00:32:54;8.02;;;2.60;;
51913;SDS011;37940;53.002;6.930;2022-10-24T00:35:19;4.75;;;2.08;;
51913;SDS011;37940;53.002;6.930;2022-10-24T00:37:45;4.97;;;2.42;;
51913;SDS011;37940;53.002;6.930;2022-10-24T00:40:13;7.38;;;2.28;;
51913;SDS011;37940;53.002;6.930;2022-10-24T00:42:41;8.50;;;2.40;;
51913;SDS011;37940;53.002;6.930;2022-10-24T00:48:11;7.15;;;2.30;;
51913;SDS011;37940;53.002;6.930;2022-10-24T00:50:38;5.88;;;2.30;;
51913;SDS011;37940;53.002;6.930;2022-10-24T00:53:04;4.75;;;2.10;;
51913;SDS011;37940;53.002;6.930;2022-10-24T00:55:30;5.82;;;2.15;;
51913;SDS011;37940;53.002;6.930;2022-10-24T00:57:55;6.03;;;2.42;;
51913;SDS011;37940;53.002;6.930;2022-10-24T01:00:27;8.73;;;2.25;;
51913;SDS011;37940;53.002;6.930;2022-10-24T01:02:55;7.65;;;2.28;;
51913;SDS011;37940;53.002;6.930;2022-10-24T01:05:22;8.68;;;2.58;;
51913;SDS011;37940;53.002;6.930;2022-10-24T01:16:14;6.50;;;2.13;;
51913;SDS011;37940;53.002;6.930;2022-10-24T01:18:56;4.93;;;1.88;;
51913;SDS011;37940;53.002;6.930;2022-10-24T01:24:20;4.30;;;1.90;;
51913;SDS011;37940;53.002;6.930;2022-10-24T01:27:13;8.02;;;1.92;;
51913;SDS011;37940;53.002;6.930;2022-10-24T01:30:06;5.63;;;2.20;;
51913;SDS011;37940;53.002;6.930;2022-10-24T01:40:34;7.65;;;2.28;;
51913;SDS011;37940;53.002;6.930;2022-10-24T01:43:09;8.73;;;2.42;;
51913;SDS011;37940;53.002;6.930;2022-10-24T01:45:39;5.70;;;2.28;;
51913;SDS011;37940;53.002;6.930;2022-10-24T01:48:10;8.63;;;2.45;;
51913;SDS011;37940;53.002;6.930;2022-10-24T01:50:39;6.53;;;2.40;;
51913;SDS011;37940;53.002;6.930;2022-10-24T01:53:08;8.68;;;2.15;;
51913;SDS011;37940;53.002;6.930;2022-10-24T01:55:36;8.98;;;2.38;;
51913;SDS011;37940;53.002;6.930;2022-10-24T01:58:03;6.32;;;2.58;;
51913;SDS011;37940;53.002;6.930;2022-10-24T02:00:30;7.13;;;2.63;;
51913;SDS011;37940;53.002;6.930;2022-10-24T02:02:59;5.13;;;2.35;;
51913;SDS011;37940;53.002;6.930;2022-10-24T02:05:35;7.07;;;2.80;;
51913;SDS011;37940;53.002;6.930;2022-10-24T02:08:10;9.73;;;3.45;;
51913;SDS011;37940;53.002;6.930;2022-10-24T02:10:44;7.32;;;2.65;;
51913;SDS011;37940;53.002;6.930;2022-10-24T02:13:15;6.68;;;2.75;;
51913;SDS011;37940;53.002;6.930;2022-10-24T02:15:49;5.82;;;2.60;;
51913;SDS011;37940;53.002;6.930;2022-10-24T02:18:17;8.73;;;2.60;;
51913;SDS011;37940;53.002;6.930;2022-10-24T02:20:58;7.45;;;3.28;;
51913;SDS011;37940;53.002;6.930;2022-10-24T02:25:59;11.40;;;2.85;;
51913;SDS011;37940;53.002;6.930;2022-10-24T02:28:28;15.52;;;3.00;;
51913;SDS011;37940;53.002;6.930;2022-10-24T02:30:58;7.95;;;3.03;;
51913;SDS011;37940;53.002;6.930;2022-10-24T02:33:28;7.00;;;3.08;;
51913;SDS011;37940;53.002;6.930;2022-10-24T02:35:55;8.77;;;3.42;;
51913;SDS011;37940;53.002;6.930;2022-10-24T02:38:24;9.93;;;3.00;;
51913;SDS011;37940;53.002;6.930;2022-10-24T02:40:54;7.57;;;2.97;;
51913;SDS011;37940;53.002;6.930;2022-10-24T02:43:22;7.65;;;2.97;;
51913;SDS011;37940;53.002;6.930;2022-10-24T02:45:50;7.55;;;3.00;;
51913;SDS011;37940;53.002;6.930;2022-10-24T02:48:22;7.88;;;2.90;;
51913;SDS011;37940;53.002;6.930;2022-10-24T02:50:51;6.60;;;2.65;;
51913;SDS011;37940;53.002;6.930;2022-10-24T02:53:18;8.65;;;2.88;;
51913;SDS011;37940;53.002;6.930;2022-10-24T02:55:45;8.45;;;3.10;;
51913;SDS011;37940;53.002;6.930;2022-10-24T02:58:11;7.72;;;3.42;;
51913;SDS011;37940;53.002;6.930;2022-10-24T03:00:37;9.32;;;3.05;;
51913;SDS011;37940;53.002;6.930;2022-10-24T03:03:03;8.85;;;3.30;;
51913;SDS011;37940;53.002;6.930;2022-10-24T03:05:28;8.45;;;3.17;;
51913;SDS011;37940;53.002;6.930;2022-10-24T03:07:54;8.55;;;2.80;;
51913;SDS011;37940;53.002;6.930;2022-10-24T03:10:20;7.43;;;2.80;;
51913;SDS011;37940;53.002;6.930;2022-10-24T03:12:46;6.72;;;2.95;;
51913;SDS011;37940;53.002;6.930;2022-10-24T03:15:12;9.68;;;3.10;;
51913;SDS011;37940;53.002;6.930;2022-10-24T03:17:39;11.88;;;3.13;;
51913;SDS011;37940;53.002;6.930;2022-10-24T03:20:04;7.88;;;3.08;;
51913;SDS011;37940;53.002;6.930;2022-10-24T03:22:30;8.00;;;2.97;;
51913;SDS011;37940;53.002;6.930;2022-10-24T03:24:56;8.85;;;2.83;;
51913;SDS011;37940;53.002;6.930;2022-10-24T03:27:25;7.90;;;3.05;;
51913;SDS011;37940;53.002;6.930;2022-10-24T03:29:51;6.68;;;2.85;;
51913;SDS011;37940;53.002;6.930;2022-10-24T03:32:17;9.35;;;2.83;;
51913;SDS011;37940;53.002;6.930;2022-10-24T03:34:42;10.95;;;3.15;;
51913;SDS011;37940;53.002;6.930;2022-10-24T03:37:08;8.68;;;3.00;;
51913;SDS011;37940;53.002;6.930;2022-10-24T03:39:34;8.80;;;2.83;;
51913;SDS011;37940;53.002;6.930;2022-10-24T03:42:00;7.80;;;3.00;;
51913;SDS011;37940;53.002;6.930;2022-10-24T03:44:25;7.60;;;3.10;;
51913;SDS011;37940;53.002;6.930;2022-10-24T03:46:51;8.93;;;2.88;;
51913;SDS011;37940;53.002;6.930;2022-10-24T03:49:17;9.90;;;3.13;;
51913;SDS011;37940;53.002;6.930;2022-10-24T03:51:42;10.63;;;3.10;;
51913;SDS011;37940;53.002;6.930;2022-10-24T03:54:08;10.02;;;3.50;;
51913;SDS011;37940;53.002;6.930;2022-10-24T03:56:35;8.52;;;2.97;;
51913;SDS011;37940;53.002;6.930;2022-10-24T03:59:01;7.60;;;2.65;;
51913;SDS011;37940;53.002;6.930;2022-10-24T04:01:28;11.57;;;3.13;;
51913;SDS011;37940;53.002;6.930;2022-10-24T04:03:54;10.50;;;3.13;;
51913;SDS011;37940;53.002;6.930;2022-10-24T04:06:20;7.75;;;2.80;;
51913;SDS011;37940;53.002;6.930;2022-10-24T04:08:45;9.68;;;2.80;;
51913;SDS011;37940;53.002;6.930;2022-10-24T04:11:11;7.40;;;3.00;;
51913;SDS011;37940;53.002;6.930;2022-10-24T04:13:37;5.45;;;2.50;;
51913;SDS011;37940;53.002;6.930;2022-10-24T04:16:03;11.82;;;2.97;;
51913;SDS011;37940;53.002;6.930;2022-10-24T04:18:28;10.10;;;2.90;;
51913;SDS011;37940;53.002;6.930;2022-10-24T04:20:54;9.18;;;3.03;;
51913;SDS011;37940;53.002;6.930;2022-10-24T04:23:20;7.72;;;2.75;;
51913;SDS011;37940;53.002;6.930;2022-10-24T04:25:45;8.32;;;2.85;;
51913;SDS011;37940;53.002;6.930;2022-10-24T04:28:11;7.47;;;3.38;;
51913;SDS011;37940;53.002;6.930;2022-10-24T04:30:37;6.85;;;2.60;;
51913;SDS011;37940;53.002;6.930;2022-10-24T04:33:03;5.95;;;2.13;;
51913;SDS011;37940;53.002;6.930;2022-10-24T04:35:29;8.15;;;2.22;;
51913;SDS011;37940;53.002;6.930;2022-10-24T04:37:55;7.47;;;2.38;;
51913;SDS011;37940;53.002;6.930;2022-10-24T04:40:21;11.77;;;2.70;;
51913;SDS011;37940;53.002;6.930;2022-10-24T04:42:46;9.85;;;2.53;;
51913;SDS011;37940;53.002;6.930;2022-10-24T04:45:12;5.18;;;2.10;;
51913;SDS011;37940;53.002;6.930;2022-10-24T04:47:38;8.00;;;2.50;;
51913;SDS011;37940;53.002;6.930;2022-10-24T04:50:03;9.10;;;2.40;;
51913;SDS011;37940;53.002;6.930;2022-10-24T04:52:29;10.35;;;2.20;;
51913;SDS011;37940;53.002;6.930;2022-10-24T04:54:55;8.38;;;2.13;;
51913;SDS011;37940;53.002;6.930;2022-10-24T04:57:21;7.63;;;2.60;;
51913;SDS011;37940;53.002;6.930;2022-10-24T04:59:47;9.45;;;2.40;;
51913;SDS011;37940;53.002;6.930;2022-10-24T05:02:12;9.75;;;2.65;;
51913;SDS011;37940;53.002;6.930;2022-10-24T05:04:38;6.72;;;2.22;;
51913;SDS011;37940;53.002;6.930;2022-10-24T05:07:04;6.43;;;2.03;;
51913;SDS011;37940;53.002;6.930;2022-10-24T05:09:29;7.75;;;1.95;;
51913;SDS011;37940;53.002;6.930;2022-10-24T05:11:55;7.88;;;2.10;;
51913;SDS011;37940;53.002;6.930;2022-10-24T05:14:22;7.25;;;2.10;;
51913;SDS011;37940;53.002;6.930;2022-10-24T05:16:48;6.75;;;1.90;;
51913;SDS011;37940;53.002;6.930;2022-10-24T05:19:14;6.78;;;1.77;;
51913;SDS011;37940;53.002;6.930;2022-10-24T05:21:40;5.90;;;2.20;;
51913;SDS011;37940;53.002;6.930;2022-10-24T05:24:06;6.13;;;2.10;;
51913;SDS011;37940;53.002;6.930;2022-10-24T05:26:32;5.47;;;2.00;;
51913;SDS011;37940;53.002;6.930;2022-10-24T05:28:58;4.78;;;1.90;;
51913;SDS011;37940;53.002;6.930;2022-10-24T05:31:24;5.25;;;2.10;;
51913;SDS011;37940;53.002;6.930;2022-10-24T05:33:50;6.78;;;2.20;;
51913;SDS011;37940;53.002;6.930;2022-10-24T05:36:15;4.88;;;2.45;;
51913;SDS011;37940;53.002;6.930;2022-10-24T05:38:41;7.22;;;1.90;;
51913;SDS011;37940;53.002;6.930;2022-10-24T05:41:07;9.48;;;2.38;;
51913;SDS011;37940;53.002;6.930;2022-10-24T05:43:32;7.25;;;2.42;;
51913;SDS011;37940;53.002;6.930;2022-10-24T05:45:58;5.78;;;1.80;;
51913;SDS011;37940;53.002;6.930;2022-10-24T05:48:24;7.60;;;2.33;;
51913;SDS011;37940;53.002;6.930;2022-10-24T05:50:50;8.55;;;1.90;;
51913;SDS011;37940;53.002;6.930;2022-10-24T05:53:19;5.60;;;1.83;;
51913;SDS011;37940;53.002;6.930;2022-10-24T05:55:45;5.07;;;1.88;;
51913;SDS011;37940;53.002;6.930;2022-10-24T05:58:10;8.60;;;1.98;;
51913;SDS011;37940;53.002;6.930;2022-10-24T06:00:36;6.85;;;2.10;;
51913;SDS011;37940;53.002;6.930;2022-10-24T06:03:02;6.75;;;1.90;;
51913;SDS011;37940;53.002;6.930;2022-10-24T06:05:27;8.55;;;2.00;;
51913;SDS011;37940;53.002;6.930;2022-10-24T06:07:53;8.27;;;2.17;;
51913;SDS011;37940;53.002;6.930;2022-10-24T06:10:19;7.45;;;2.17;;
51913;SDS011;37940;53.002;6.930;2022-10-24T06:12:45;11.00;;;2.28;;
51913;SDS011;37940;53.002;6.930;2022-10-24T06:15:11;5.97;;;2.08;;
51913;SDS011;37940;53.002;6.930;2022-10-24T06:17:37;10.77;;;2.30;;
51913;SDS011;37940;53.002;6.930;2022-10-24T06:20:03;6.53;;;2.13;;
51913;SDS011;37940;53.002;6.930;2022-10-24T06:22:29;7.05;;;1.95;;
51913;SDS011;37940;53.002;6.930;2022-10-24T06:24:55;6.55;;;1.85;;
51913;SDS011;37940;53.002;6.930;2022-10-24T06:27:21;7.72;;;2.20;;
51913;SDS011;37940;53.002;6.930;2022-10-24T06:29:46;9.88;;;2.13;;
51913;SDS011;37940;53.002;6.930;2022-10-24T06:32:12;6.15;;;1.85;;
51913;SDS011;37940;53.002;6.930;2022-10-24T06:34:38;7.68;;;2.00;;
51913;SDS011;37940;53.002;6.930;2022-10-24T06:37:04;8.95;;;2.10;;
51913;SDS011;37940;53.002;6.930;2022-10-24T06:39:29;4.45;;;1.83;;
51913;SDS011;37940;53.002;6.930;2022-10-24T06:41:55;6.03;;;2.00;;
51913;SDS011;37940;53.002;6.930;2022-10-24T06:44:21;7.82;;;1.98;;
51913;SDS011;37940;53.002;6.930;2022-10-24T06:46:46;6.38;;;2.15;;
51913;SDS011;37940;53.002;6.930;2022-10-24T06:49:12;7.78;;;2.15;;
51913;SDS011;37940;53.002;6.930;2022-10-24T06:51:39;8.32;;;1.92;;
51913;SDS011;37940;53.002;6.930;2022-10-24T06:54:05;7.03;;;2.20;;
51913;SDS011;37940;53.002;6.930;2022-10-24T06:56:31;8.48;;;2.03;;
51913;SDS011;37940;53.002;6.930;2022-10-24T06:58:57;6.30;;;1.95;;
51913;SDS011;37940;53.002;6.930;2022-10-24T07:01:24;6.38;;;2.05;;
51913;SDS011;37940;53.002;6.930;2022-10-24T07:03:51;4.28;;;1.90;;
51913;SDS011;37940;53.002;6.930;2022-10-24T07:06:18;6.45;;;1.98;;
51913;SDS011;37940;53.002;6.930;2022-10-24T07:08:46;6.95;;;1.90;;
51913;SDS011;37940;53.002;6.930;2022-10-24T07:11:12;6.85;;;2.08;;
51913;SDS011;37940;53.002;6.930;2022-10-24T07:13:38;6.28;;;1.98;;
51913;SDS011;37940;53.002;6.930;2022-10-24T07:16:05;6.80;;;2.20;;
51913;SDS011;37940;53.002;6.930;2022-10-24T07:18:31;4.88;;;1.83;;
51913;SDS011;37940;53.002;6.930;2022-10-24T07:21:04;5.53;;;1.90;;
51913;SDS011;37940;53.002;6.930;2022-10-24T07:23:35;5.80;;;1.98;;
51913;SDS011;37940;53.002;6.930;2022-10-24T07:26:04;10.65;;;2.10;;
51913;SDS011;37940;53.002;6.930;2022-10-24T07:28:35;7.82;;;2.20;;
51913;SDS011;37940;53.002;6.930;2022-10-24T07:31:01;4.45;;;1.80;;
51913;SDS011;37940;53.002;6.930;2022-10-24T07:33:28;6.97;;;2.10;;
51913;SDS011;37940;53.002;6.930;2022-10-24T07:35:53;5.32;;;1.80;;
51913;SDS011;37940;53.002;6.930;2022-10-24T07:38:19;5.35;;;1.90;;
51913;SDS011;37940;53.002;6.930;2022-10-24T07:40:45;7.40;;;2.03;;
51913;SDS011;37940;53.002;6.930;2022-10-24T07:43:11;10.45;;;1.90;;
51913;SDS011;37940;53.002;6.930;2022-10-24T07:45:37;9.82;;;1.92;;
51913;SDS011;37940;53.002;6.930;2022-10-24T07:48:03;7.85;;;2.00;;
51913;SDS011;37940;53.002;6.930;2022-10-24T07:50:31;7.80;;;1.88;;
51913;SDS011;37940;53.002;6.930;2022-10-24T07:53:05;7.00;;;1.50;;
51913;SDS011;37940;53.002;6.930;2022-10-24T07:55:31;6.80;;;1.77;;
51913;SDS011;37940;53.002;6.930;2022-10-24T07:57:56;4.75;;;1.88;;
51913;SDS011;37940;53.002;6.930;2022-10-24T08:00:22;11.00;;;2.10;;
51913;SDS011;37940;53.002;6.930;2022-10-24T08:02:49;5.72;;;1.60;;
51913;SDS011;37940;53.002;6.930;2022-10-24T08:05:15;8.75;;;2.45;;
51913;SDS011;37940;53.002;6.930;2022-10-24T08:07:40;9.98;;;2.28;;
51913;SDS011;37940;53.002;6.930;2022-10-24T08:10:06;5.18;;;2.00;;
51913;SDS011;37940;53.002;6.930;2022-10-24T08:12:35;7.15;;;2.05;;
51913;SDS011;37940;53.002;6.930;2022-10-24T08:15:01;5.80;;;1.70;;
51913;SDS011;37940;53.002;6.930;2022-10-24T08:17:26;6.78;;;1.75;;
51913;SDS011;37940;53.002;6.930;2022-10-24T08:19:52;9.20;;;2.03;;
51913;SDS011;37940;53.002;6.930;2022-10-24T08:22:18;9.70;;;2.10;;
51913;SDS011;37940;53.002;6.930;2022-10-24T08:24:44;6.15;;;2.03;;
51913;SDS011;37940;53.002;6.930;2022-10-24T08:27:10;6.32;;;1.70;;
51913;SDS011;37940;53.002;6.930;2022-10-24T08:29:37;8.40;;;2.20;;
51913;SDS011;37940;53.002;6.930;2022-10-24T08:32:02;7.18;;;2.10;;
51913;SDS011;37940;53.002;6.930;2022-10-24T08:34:30;11.13;;;2.20;;
51913;SDS011;37940;53.002;6.930;2022-10-24T08:36:57;6.60;;;2.05;;
51913;SDS011;37940;53.002;6.930;2022-10-24T08:39:23;7.07;;;2.10;;
51913;SDS011;37940;53.002;6.930;2022-10-24T08:47:02;10.40;;;2.03;;
51913;SDS011;37940;53.002;6.930;2022-10-24T08:49:54;9.30;;;1.98;;
51913;SDS011;37940;53.002;6.930;2022-10-24T08:54:54;8.23;;;2.13;;
51913;SDS011;37940;53.002;6.930;2022-10-24T08:57:24;6.60;;;1.90;;
51913;SDS011;37940;53.002;6.930;2022-10-24T08:59:53;9.07;;;2.15;;
51913;SDS011;37940;53.002;6.930;2022-10-24T09:02:27;11.55;;;2.38;;
51913;SDS011;37940;53.002;6.930;2022-10-24T09:05:00;8.60;;;1.80;;
51913;SDS011;37940;53.002;6.930;2022-10-24T09:07:47;7.53;;;2.05;;
51913;SDS011;37940;53.002;6.930;2022-10-24T09:10:21;7.45;;;2.00;;
51913;SDS011;37940;53.002;6.930;2022-10-24T09:13:00;9.35;;;2.20;;
51913;SDS011;37940;53.002;6.930;2022-10-24T09:15:28;6.15;;;1.80;;
51913;SDS011;37940;53.002;6.930;2022-10-24T09:17:55;9.07;;;2.00;;
51913;SDS011;37940;53.002;6.930;2022-10-24T09:20:27;11.00;;;2.65;;
51913;SDS011;37940;53.002;6.930;2022-10-24T09:22:57;11.45;;;2.50;;
51913;SDS011;37940;53.002;6.930;2022-10-24T09:25:27;6.13;;;2.00;;
51913;SDS011;37940;53.002;6.930;2022-10-24T09:27:57;8.45;;;1.90;;
51913;SDS011;37940;53.002;6.930;2022-10-24T09:30:26;7.28;;;2.20;;
51913;SDS011;37940;53.002;6.930;2022-10-24T09:32:56;7.72;;;2.30;;
51913;SDS011;37940;53.002;6.930;2022-10-24T09:37:54;7.40;;;2.03;;
51913;SDS011;37940;53.002;6.930;2022-10-24T09:42:55;8.35;;;2.42;;
51913;SDS011;37940;53.002;6.930;2022-10-24T09:48:02;7.93;;;2.30;;
51913;SDS011;37940;53.002;6.930;2022-10-24T09:50:32;7.88;;;1.80;;
51913;SDS011;37940;53.002;6.930;2022-10-24T09:52:59;8.18;;;1.80;;
51913;SDS011;37940;53.002;6.930;2022-10-24T09:55:27;5.40;;;1.83;;
51913;SDS011;37940;53.002;6.930;2022-10-24T09:57:55;6.97;;;1.92;;
51913;SDS011;37940;53.002;6.930;2022-10-24T10:02:59;7.28;;;1.95;;
51913;SDS011;37940;53.002;6.930;2022-10-24T10:05:44;5.78;;;1.80;;
51913;SDS011;37940;53.002;6.930;2022-10-24T10:08:20;8.00;;;1.70;;
51913;SDS011;37940;53.002;6.930;2022-10-24T10:10:55;9.40;;;3.65;;
51913;SDS011;37940;53.002;6.930;2022-10-24T10:13:23;8.73;;;2.15;;
51913;SDS011;37940;53.002;6.930;2022-10-24T10:15:52;7.32;;;1.95;;
51913;SDS011;37940;53.002;6.930;2022-10-24T10:23:25;6.95;;;1.60;;
51913;SDS011;37940;53.002;6.930;2022-10-24T10:28:49;8.80;;;1.83;;
51913;SDS011;37940;53.002;6.930;2022-10-24T10:31:19;5.20;;;1.40;;
51913;SDS011;37940;53.002;6.930;2022-10-24T10:34:11;5.38;;;1.50;;
51913;SDS011;37940;53.002;6.930;2022-10-24T10:36:58;4.45;;;1.60;;
51913;SDS011;37940;53.002;6.930;2022-10-24T10:39:44;8.98;;;1.75;;
51913;SDS011;37940;53.002;6.930;2022-10-24T10:42:36;7.63;;;1.80;;
51913;SDS011;37940;53.002;6.930;2022-10-24T10:48:08;6.15;;;1.52;;
51913;SDS011;37940;53.002;6.930;2022-10-24T10:53:28;6.45;;;1.38;;
51913;SDS011;37940;53.002;6.930;2022-10-24T10:58:50;4.47;;;1.08;;
51913;SDS011;37940;53.002;6.930;2022-10-24T11:09:36;6.75;;;1.30;;
51913;SDS011;37940;53.002;6.930;2022-10-24T11:14:59;4.88;;;1.45;;
51913;SDS011;37940;53.002;6.930;2022-10-24T11:17:34;4.85;;;1.50;;
51913;SDS011;37940;53.002;6.930;2022-10-24T11:22:49;7.43;;;1.60;;
51913;SDS011;37940;53.002;6.930;2022-10-24T11:25:29;5.22;;;1.50;;
51913;SDS011;37940;53.002;6.930;2022-10-24T11:28:07;10.63;;;1.95;;
51913;SDS011;37940;53.002;6.930;2022-10-24T11:33:25;5.13;;;1.58;;
51913;SDS011;37940;53.002;6.930;2022-10-24T11:36:06;5.82;;;1.58;;
51913;SDS011;37940;53.002;6.930;2022-10-24T11:38:34;6.57;;;1.83;;
51913;SDS011;37940;53.002;6.930;2022-10-24T11:44:22;9.35;;;2.17;;
51913;SDS011;37940;53.002;6.930;2022-10-24T11:46:52;3.53;;;1.10;;
51913;SDS011;37940;53.002;6.930;2022-10-24T11:49:30;3.22;;;1.27;;
51913;SDS011;37940;53.002;6.930;2022-10-24T11:55:00;4.97;;;1.30;;
51913;SDS011;37940;53.002;6.930;2022-10-24T11:58:11;7.15;;;1.50;;
51913;SDS011;37940;53.002;6.930;2022-10-24T12:09:36;3.10;;;1.13;;
51913;SDS011;37940;53.002;6.930;2022-10-24T12:17:39;3.85;;;1.25;;
51913;SDS011;37940;53.002;6.930;2022-10-24T12:20:16;3.50;;;1.10;;
51913;SDS011;37940;53.002;6.930;2022-10-24T12:22:44;5.72;;;1.60;;
51913;SDS011;37940;53.002;6.930;2022-10-24T12:28:03;4.47;;;1.17;;
51913;SDS011;37940;53.002;6.930;2022-10-24T12:35:49;6.97;;;1.65;;
51913;SDS011;37940;53.002;6.930;2022-10-24T12:43:41;5.57;;;1.55;;
51913;SDS011;37940;53.002;6.930;2022-10-24T12:54:04;3.97;;;1.30;;
51913;SDS011;37940;53.002;6.930;2022-10-24T12:59:24;5.50;;;1.33;;
51913;SDS011;37940;53.002;6.930;2022-10-24T13:10:13;6.13;;;1.60;;
51913;SDS011;37940;53.002;6.930;2022-10-24T13:15:48;4.53;;;1.17;;
51913;SDS011;37940;53.002;6.930;2022-10-24T13:18:31;9.85;;;2.10;;
51913;SDS011;37940;53.002;6.930;2022-10-24T13:23:51;6.50;;;1.38;;
51913;SDS011;37940;53.002;6.930;2022-10-24T13:26:33;5.85;;;1.73;;
51913;SDS011;37940;53.002;6.930;2022-10-24T13:29:10;7.40;;;1.40;;
51913;SDS011;37940;53.002;6.930;2022-10-24T13:31:38;7.68;;;1.85;;
51913;SDS011;37940;53.002;6.930;2022-10-24T13:34:17;4.70;;;1.40;;
51913;SDS011;37940;53.002;6.930;2022-10-24T13:37:11;2.65;;;1.25;;
51913;SDS011;37940;53.002;6.930;2022-10-24T13:39:40;5.63;;;1.67;;
51913;SDS011;37940;53.002;6.930;2022-10-24T13:42:24;4.68;;;1.70;;
51913;SDS011;37940;53.002;6.930;2022-10-24T13:44:57;5.38;;;1.40;;
51913;SDS011;37940;53.002;6.930;2022-10-24T13:47:30;4.55;;;1.33;;
51913;SDS011;37940;53.002;6.930;2022-10-24T13:52:41;4.75;;;1.67;;
51913;SDS011;37940;53.002;6.930;2022-10-24T13:55:25;6.10;;;1.70;;
51913;SDS011;37940;53.002;6.930;2022-10-24T13:58:02;4.43;;;1.30;;
51913;SDS011;37940;53.002;6.930;2022-10-24T14:00:36;6.50;;;2.33;;
51913;SDS011;37940;53.002;6.930;2022-10-24T14:03:10;4.68;;;1.40;;
51913;SDS011;37940;53.002;6.930;2022-10-24T14:05:43;7.88;;;1.88;;
51913;SDS011;37940;53.002;6.930;2022-10-24T14:08:19;6.70;;;1.20;;
51913;SDS011;37940;53.002;6.930;2022-10-24T14:13:22;2.70;;;0.98;;
51913;SDS011;37940;53.002;6.930;2022-10-24T14:15:54;5.95;;;1.10;;
51913;SDS011;37940;53.002;6.930;2022-10-24T14:18:22;4.72;;;1.27;;
51913;SDS011;37940;53.002;6.930;2022-10-24T14:20:55;5.43;;;1.35;;
51913;SDS011;37940;53.002;6.930;2022-10-24T14:23:27;3.92;;;1.58;;
51913;SDS011;37940;53.002;6.930;2022-10-24T14:25:59;4.60;;;1.50;;
51913;SDS011;37940;53.002;6.930;2022-10-24T14:28:33;3.80;;;1.40;;
51913;SDS011;37940;53.002;6.930;2022-10-24T14:31:05;5.55;;;1.60;;
51913;SDS011;37940;53.002;6.930;2022-10-24T14:33:46;4.13;;;1.20;;
51913;SDS011;37940;53.002;6.930;2022-10-24T14:36:14;4.47;;;1.17;;
51913;SDS011;37940;53.002;6.930;2022-10-24T14:38:48;5.10;;;1.33;;
51913;SDS011;37940;53.002;6.930;2022-10-24T14:41:17;6.90;;;1.80;;
51913;SDS011;37940;53.002;6.930;2022-10-24T14:43:44;5.75;;;1.35;;
51913;SDS011;37940;53.002;6.930;2022-10-24T14:48:36;4.57;;;1.15;;
51913;SDS011;37940;53.002;6.930;2022-10-24T14:51:16;4.20;;;1.25;;
51913;SDS011;37940;53.002;6.930;2022-10-24T14:53:51;8.20;;;1.83;;
51913;SDS011;37940;53.002;6.930;2022-10-24T14:58:53;3.08;;;1.10;;
51913;SDS011;37940;53.002;6.930;2022-10-24T15:01:27;7.35;;;1.90;;
51913;SDS011;37940;53.002;6.930;2022-10-24T15:06:23;7.82;;;1.63;;
51913;SDS011;37940;53.002;6.930;2022-10-24T15:09:04;6.73;;;1.50;;
51913;SDS011;37940;53.002;6.930;2022-10-24T15:11:45;8.65;;;1.60;;
51913;SDS011;37940;53.002;6.930;2022-10-24T15:19:41;4.35;;;1.85;;
51913;SDS011;37940;53.002;6.930;2022-10-24T15:24:53;6.22;;;2.00;;
51913;SDS011;37940;53.002;6.930;2022-10-24T15:27:55;4.43;;;1.58;;
51913;SDS011;37940;53.002;6.930;2022-10-24T15:30:26;5.83;;;1.80;;
51913;SDS011;37940;53.002;6.930;2022-10-24T15:32:58;8.30;;;1.80;;
51913;SDS011;37940;53.002;6.930;2022-10-24T15:35:24;7.72;;;1.80;;
51913;SDS011;37940;53.002;6.930;2022-10-24T15:38:11;4.57;;;1.58;;
51913;SDS011;37940;53.002;6.930;2022-10-24T15:40:40;5.60;;;1.70;;
51913;SDS011;37940;53.002;6.930;2022-10-24T15:43:10;5.00;;;1.20;;
51913;SDS011;37940;53.002;6.930;2022-10-24T15:45:36;6.18;;;1.70;;
51913;SDS011;37940;53.002;6.930;2022-10-24T15:48:02;5.00;;;1.40;;
51913;SDS011;37940;53.002;6.930;2022-10-24T15:50:28;5.20;;;1.70;;
51913;SDS011;37940;53.002;6.930;2022-10-24T15:52:55;7.05;;;1.40;;
51913;SDS011;37940;53.002;6.930;2022-10-24T15:55:23;5.25;;;1.80;;
51913;SDS011;37940;53.002;6.930;2022-10-24T15:57:50;5.90;;;1.50;;
51913;SDS011;37940;53.002;6.930;2022-10-24T16:00:17;5.40;;;1.63;;
51913;SDS011;37940;53.002;6.930;2022-10-24T16:02:45;3.72;;;1.50;;
51913;SDS011;37940;53.002;6.930;2022-10-24T16:08:11;5.43;;;1.75;;
51913;SDS011;37940;53.002;6.930;2022-10-24T16:10:39;6.05;;;1.88;;
51913;SDS011;37940;53.002;6.930;2022-10-24T16:13:05;7.03;;;1.48;;
51913;SDS011;37940;53.002;6.930;2022-10-24T16:15:33;4.53;;;1.48;;
51913;SDS011;37940;53.002;6.930;2022-10-24T16:18:00;5.72;;;1.70;;
51913;SDS011;37940;53.002;6.930;2022-10-24T16:20:26;7.97;;;1.90;;
51913;SDS011;37940;53.002;6.930;2022-10-24T16:22:52;5.15;;;1.40;;
51913;SDS011;37940;53.002;6.930;2022-10-24T16:25:21;6.75;;;1.80;;
51913;SDS011;37940;53.002;6.930;2022-10-24T16:27:52;6.10;;;1.75;;
51913;SDS011;37940;53.002;6.930;2022-10-24T16:30:18;6.78;;;2.20;;
51913;SDS011;37940;53.002;6.930;2022-10-24T16:32:45;6.30;;;2.00;;
51913;SDS011;37940;53.002;6.930;2022-10-24T16:35:18;5.40;;;1.92;;
51913;SDS011;37940;53.002;6.930;2022-10-24T16:37:54;6.20;;;2.20;;
51913;SDS011;37940;53.002;6.930;2022-10-24T16:40:22;5.97;;;2.00;;
51913;SDS011;37940;53.002;6.930;2022-10-24T16:42:51;9.38;;;2.53;;
51913;SDS011;37940;53.002;6.930;2022-10-24T16:45:18;5.20;;;2.13;;
51913;SDS011;37940;53.002;6.930;2022-10-24T16:47:44;4.55;;;1.92;;
51913;SDS011;37940;53.002;6.930;2022-10-24T16:50:45;7.10;;;2.50;;
51913;SDS011;37940;53.002;6.930;2022-10-24T16:53:09;5.32;;;2.30;;
51913;SDS011;37940;53.002;6.930;2022-10-24T16:55:35;6.90;;;2.10;;
51913;SDS011;37940;53.002;6.930;2022-10-24T16:58:01;8.20;;;2.53;;
51913;SDS011;37940;53.002;6.930;2022-10-24T17:00:27;8.65;;;2.65;;
51913;SDS011;37940;53.002;6.930;2022-10-24T17:02:54;8.02;;;3.08;;
51913;SDS011;37940;53.002;6.930;2022-10-24T17:05:22;7.25;;;2.28;;
51913;SDS011;37940;53.002;6.930;2022-10-24T17:07:50;7.53;;;2.63;;
51913;SDS011;37940;53.002;6.930;2022-10-24T17:10:16;7.25;;;2.88;;
51913;SDS011;37940;53.002;6.930;2022-10-24T17:12:43;9.55;;;3.08;;
51913;SDS011;37940;53.002;6.930;2022-10-24T17:15:13;8.32;;;3.05;;
51913;SDS011;37940;53.002;6.930;2022-10-24T17:17:40;9.30;;;3.30;;
51913;SDS011;37940;53.002;6.930;2022-10-24T17:20:06;10.05;;;3.58;;
51913;SDS011;37940;53.002;6.930;2022-10-24T17:22:34;10.05;;;3.20;;
51913;SDS011;37940;53.002;6.930;2022-10-24T17:25:01;8.68;;;2.80;;
51913;SDS011;37940;53.002;6.930;2022-10-24T17:27:27;9.70;;;2.63;;
51913;SDS011;37940;53.002;6.930;2022-10-24T17:29:53;10.95;;;2.80;;
51913;SDS011;37940;53.002;6.930;2022-10-24T17:32:19;11.43;;;2.92;;
51913;SDS011;37940;53.002;6.930;2022-10-24T17:34:45;10.60;;;2.80;;
51913;SDS011;37940;53.002;6.930;2022-10-24T17:42:18;9.88;;;3.05;;